createdAt,value
2018-05-05T00:00:31.945Z,45.91
2018-05-05T00:03:03.565Z,45.77
2018-05-05T00:05:35.817Z,46.08
2018-05-05T00:08:07.963Z,46.11
2018-05-05T00:10:39.607Z,45.84
2018-05-05T00:13:11.012Z,45.51
2018-05-05T00:15:42.459Z,45.57
2018-05-05T00:18:13.821Z,45.34
2018-05-05T00:20:45.235Z,45.42
2018-05-05T00:23:16.969Z,45.53
2018-05-05T00:25:48.313Z,45.43
2018-05-05T00:28:19.674Z,45.51
2018-05-05T00:30:51.859Z,45.38
2018-05-05T00:33:23.209Z,45.48
2018-05-05T00:35:55.038Z,45.35
2018-05-05T00:38:26.278Z,45.26
2018-05-05T00:40:58.270Z,44.94
2018-05-05T00:43:30.489Z,45.20
2018-05-05T00:46:04.395Z,45.09
2018-05-05T00:48:36.279Z,45.01
2018-05-05T00:51:07.663Z,44.92
2018-05-05T00:53:39.916Z,45.30
2018-05-05T00:56:13.601Z,45.28
2018-05-05T00:58:44.878Z,45.15
2018-05-05T01:01:16.414Z,45.00
2018-05-05T01:03:48.603Z,44.88
2018-05-05T01:06:20.844Z,45.05
2018-05-05T01:08:55.987Z,44.87
2018-05-05T01:11:27.325Z,44.87
2018-05-05T01:13:58.653Z,44.93
2018-05-05T01:16:31.232Z,44.93
2018-05-05T01:19:02.514Z,45.04
2018-05-05T01:21:33.942Z,45.09
2018-05-05T01:24:06.166Z,44.90
2018-05-05T01:26:37.441Z,44.89
2018-05-05T01:29:11.641Z,44.86
2018-05-05T01:31:43.922Z,44.94
2018-05-05T01:34:15.246Z,45.15
2018-05-05T01:36:46.932Z,45.46
2018-05-05T01:39:19.187Z,45.17
2018-05-05T01:41:51.460Z,45.48
2018-05-05T01:44:23.801Z,45.47
2018-05-05T01:46:56.116Z,45.37
2018-05-05T01:49:30.369Z,45.25
2018-05-05T01:52:03.191Z,45.28
2018-05-05T01:54:37.062Z,45.32
2018-05-05T01:57:10.449Z,45.68
2018-05-05T01:59:41.883Z,45.39
2018-05-05T02:02:14.956Z,45.52
2018-05-05T02:04:46.677Z,45.95
2018-05-05T02:07:18.003Z,45.72
2018-05-05T02:09:49.335Z,45.70
2018-05-05T02:12:20.745Z,45.78
2018-05-05T02:14:52.950Z,45.76
2018-05-05T02:17:24.452Z,45.65
2018-05-05T02:19:56.058Z,45.51
2018-05-05T02:22:27.716Z,45.61
2018-05-05T02:24:58.958Z,45.50
2018-05-05T02:27:30.626Z,45.52
2018-05-05T02:30:06.277Z,45.52
2018-05-05T02:32:39.389Z,45.61
2018-05-05T02:35:11.962Z,45.63
2018-05-05T02:37:44.175Z,45.38
2018-05-05T02:40:18.178Z,45.02
2018-05-05T02:42:50.989Z,45.01
2018-05-05T02:45:24.166Z,44.66
2018-05-05T02:47:57.830Z,44.69
2018-05-05T02:50:30.098Z,44.71
2018-05-05T02:53:02.266Z,44.70
2018-05-05T02:55:33.928Z,44.72
2018-05-05T02:58:05.290Z,44.58
2018-05-05T03:00:39.469Z,44.68
2018-05-05T03:03:11.132Z,44.50
2018-05-05T03:05:42.991Z,44.67
2018-05-05T03:08:17.058Z,44.63
2018-05-05T03:10:48.439Z,44.62
2018-05-05T03:13:22.375Z,44.55
2018-05-05T03:15:55.503Z,44.54
2018-05-05T03:18:28.122Z,44.72
2018-05-05T03:21:00.501Z,44.68
2018-05-05T03:23:35.011Z,44.57
2018-05-05T03:26:09.610Z,44.61
2018-05-05T03:28:41.867Z,44.66
2018-05-05T03:31:13.192Z,44.39
2018-05-05T03:33:45.523Z,44.29
2018-05-05T03:36:21.795Z,44.29
2018-05-05T03:38:54.928Z,44.56
2018-05-05T03:41:27.215Z,44.34
2018-05-05T03:43:59.718Z,44.22
2018-05-05T03:46:31.934Z,44.49
2018-05-05T03:49:03.211Z,44.58
2018-05-05T03:51:40.261Z,44.73
2018-05-05T03:54:13.397Z,44.78
2018-05-05T03:56:47.596Z,44.53
2018-05-05T04:03:43.753Z,44.29
2018-05-05T04:06:16.660Z,45.12
2018-05-05T04:08:51.183Z,45.44
2018-05-05T04:11:23.517Z,45.70
2018-05-05T04:13:57.513Z,45.67
2018-05-05T04:16:31.202Z,45.78
2018-05-05T04:19:05.074Z,45.92
2018-05-05T04:21:39.450Z,45.81
2018-05-05T04:24:12.660Z,45.59
2018-05-05T04:26:45.902Z,45.38
2018-05-05T04:29:20.940Z,45.18
2018-05-05T04:31:54.560Z,44.79
2018-05-05T04:34:26.712Z,44.30
2018-05-05T04:37:02.454Z,44.60
2018-05-05T04:39:35.635Z,44.53
2018-05-05T04:42:08.502Z,44.17
2018-05-05T04:44:42.380Z,44.14
2018-05-05T04:47:13.669Z,44.10
2018-05-05T04:49:45.281Z,44.10
2018-05-05T04:52:18.510Z,43.60
2018-05-05T04:54:52.586Z,43.60
2018-05-05T04:57:26.958Z,43.21
2018-05-05T05:00:00.434Z,43.51
2018-05-05T05:02:33.684Z,42.88
2018-05-05T05:05:06.739Z,42.38
2018-05-05T05:07:40.089Z,42.22
2018-05-05T05:12:41.043Z,41.89
2018-05-05T05:15:15.617Z,42.00
2018-05-05T05:17:49.189Z,41.32
2018-05-05T05:20:20.568Z,41.22
2018-05-05T05:22:54.635Z,41.09
2018-05-05T05:25:27.828Z,41.04
2018-05-05T05:28:02.044Z,40.88
2018-05-05T05:30:35.194Z,40.61
2018-05-05T05:33:08.492Z,40.15
2018-05-05T05:35:41.621Z,40.22
2018-05-05T05:38:15.239Z,39.49
2018-05-05T05:40:48.416Z,39.45
2018-05-05T05:43:21.677Z,39.14
2018-05-05T05:45:54.866Z,38.90
2018-05-05T05:48:28.517Z,39.29
2018-05-05T05:51:00.649Z,38.88
2018-05-05T05:53:33.944Z,38.72
2018-05-05T05:56:07.976Z,38.41
2018-05-05T05:58:40.272Z,37.96
2018-05-05T06:01:14.742Z,37.83
2018-05-05T06:03:46.956Z,37.23
2018-05-05T06:06:20.121Z,37.45
2018-05-05T06:08:52.316Z,37.27
2018-05-05T06:11:26.202Z,37.57
2018-05-05T06:13:59.429Z,38.03
2018-05-05T06:16:33.152Z,37.91
2018-05-05T06:19:06.330Z,38.05
2018-05-05T06:21:40.245Z,37.48
2018-05-05T06:24:13.409Z,37.06
2018-05-05T06:26:46.594Z,37.20
2018-05-05T06:29:20.662Z,37.15
2018-05-05T06:31:53.690Z,36.73
2018-05-05T06:34:27.041Z,36.60
2018-05-05T06:37:00.235Z,36.54
2018-05-05T06:39:33.369Z,36.34
2018-05-05T06:42:06.542Z,35.90
2018-05-05T06:44:39.844Z,36.03
2018-05-05T06:47:13.959Z,35.91
2018-05-05T06:49:46.150Z,36.23
2018-05-05T06:52:19.346Z,35.87
2018-05-05T06:54:53.194Z,35.82
2018-05-05T06:57:26.301Z,35.60
2018-05-05T07:00:06.896Z,35.70
2018-05-05T07:02:41.023Z,35.05
2018-05-05T07:05:14.494Z,35.28
2018-05-05T07:07:47.698Z,35.13
2018-05-05T07:10:21.010Z,35.17
2018-05-05T07:12:54.267Z,35.64
2018-05-05T07:15:27.412Z,34.61
2018-05-05T07:18:00.701Z,35.03
2018-05-05T07:20:34.277Z,35.00
2018-05-05T07:23:07.575Z,34.76
2018-05-05T07:25:40.879Z,33.79
2018-05-05T07:28:14.057Z,34.05
2018-05-05T07:30:47.373Z,34.76
2018-05-05T07:33:21.243Z,34.39
2018-05-05T07:35:55.508Z,34.62
2018-05-05T07:38:28.675Z,34.43
2018-05-05T07:41:01.115Z,33.57
2018-05-05T07:43:33.303Z,34.38
2018-05-05T07:46:06.732Z,33.35
2018-05-05T07:48:40.013Z,34.40
2018-05-05T07:51:13.732Z,33.47
2018-05-05T07:53:45.940Z,33.45
2018-05-05T07:56:18.897Z,33.85
2018-05-05T07:58:51.207Z,34.16
2018-05-05T08:01:25.124Z,34.40
2018-05-05T08:03:58.335Z,33.99
2018-05-05T08:06:29.766Z,33.92
2018-05-05T08:09:03.904Z,33.13
2018-05-05T08:11:37.095Z,33.53
2018-05-05T08:14:10.276Z,33.64
2018-05-05T08:16:41.780Z,33.66
2018-05-05T08:19:15.846Z,33.30
2018-05-05T08:21:48.302Z,33.43
2018-05-05T08:24:20.532Z,33.46
2018-05-05T08:26:55.012Z,33.42
2018-05-05T08:29:26.391Z,33.42
2018-05-05T08:31:58.589Z,33.88
2018-05-05T08:34:32.571Z,33.60
2018-05-05T08:37:06.020Z,33.19
2018-05-05T08:39:38.252Z,33.35
2018-05-05T08:42:11.464Z,33.41
2018-05-05T08:44:45.253Z,33.99
2018-05-05T08:47:19.236Z,33.04
2018-05-05T08:49:50.691Z,33.52
2018-05-05T08:52:22.629Z,33.43
2018-05-05T08:54:56.085Z,32.91
2018-05-05T08:57:27.578Z,33.22
2018-05-05T09:00:01.009Z,33.40
2018-05-05T09:02:34.454Z,33.72
2018-05-05T09:05:07.684Z,33.09
2018-05-05T09:07:41.080Z,33.02
2018-05-05T09:10:13.363Z,33.38
2018-05-05T09:12:46.960Z,32.76
2018-05-05T09:15:19.141Z,33.10
2018-05-05T09:17:51.380Z,33.74
2018-05-05T09:20:24.948Z,32.97
2018-05-05T09:22:57.164Z,33.25
2018-05-05T09:25:28.578Z,33.65
2018-05-05T09:28:03.133Z,33.00
2018-05-05T09:30:36.985Z,33.31
2018-05-05T09:33:10.465Z,33.04
2018-05-05T09:35:44.631Z,32.67
2018-05-05T09:38:16.916Z,31.96
2018-05-05T09:40:50.853Z,32.19
2018-05-05T09:43:27.903Z,32.50
2018-05-05T09:46:01.169Z,32.18
2018-05-05T09:48:32.947Z,31.54
2018-05-05T09:53:44.801Z,31.83
2018-05-05T09:56:18.195Z,31.92
2018-05-05T09:58:52.728Z,31.97
2018-05-05T10:01:25.875Z,31.44
2018-05-05T10:03:59.358Z,31.75
2018-05-05T10:06:33.263Z,31.87
2018-05-05T10:09:06.266Z,31.20
2018-05-05T10:11:38.535Z,30.99
2018-05-05T10:14:10.864Z,31.21
2018-05-05T10:16:43.351Z,30.95
2018-05-05T10:19:15.585Z,31.21
2018-05-05T10:21:47.897Z,31.02
2018-05-05T10:24:19.614Z,31.29
2018-05-05T10:26:51.765Z,31.80
2018-05-05T10:29:23.160Z,31.19
2018-05-05T10:31:55.420Z,30.97
2018-05-05T10:34:27.790Z,31.37
2018-05-05T10:36:59.358Z,31.37
2018-05-05T10:39:31.569Z,30.78
2018-05-05T10:42:05.952Z,29.88
2018-05-05T10:44:38.321Z,30.23
2018-05-05T10:47:10.501Z,30.17
2018-05-05T10:49:42.043Z,30.52
2018-05-05T10:52:13.952Z,31.05
2018-05-05T10:54:49.475Z,30.45
2018-05-05T10:57:21.734Z,31.00
2018-05-05T10:59:53.315Z,31.72
2018-05-05T11:02:25.269Z,30.96
2018-05-05T11:04:56.740Z,30.55
2018-05-05T11:07:29.275Z,31.19
2018-05-05T11:10:00.669Z,30.89
2018-05-05T11:12:32.820Z,30.84
2018-05-05T11:15:07.190Z,30.16
2018-05-05T11:17:40.531Z,30.56
2018-05-05T11:20:11.937Z,30.82
2018-05-05T11:22:44.836Z,30.92
2018-05-05T11:25:16.350Z,30.68
2018-05-05T11:27:51.225Z,30.69
2018-05-05T11:30:23.593Z,30.37
2018-05-05T11:32:55.347Z,30.06
2018-05-05T11:35:26.839Z,30.03
2018-05-05T11:37:59.686Z,30.74
2018-05-05T11:40:31.137Z,31.31
2018-05-05T11:43:03.527Z,30.33
2018-05-05T11:45:36.057Z,30.40
2018-05-05T11:48:07.379Z,30.49
2018-05-05T11:50:38.766Z,30.18
2018-05-05T11:53:13.090Z,30.19
2018-05-05T11:55:45.751Z,30.31
2018-05-05T11:58:17.976Z,29.90
2018-05-05T12:00:49.530Z,29.72
2018-05-05T12:03:24.666Z,29.35
2018-05-05T12:05:56.008Z,29.39
2018-05-05T12:08:28.207Z,29.61
2018-05-05T12:11:01.117Z,29.51
2018-05-05T12:13:33.328Z,29.65
2018-05-05T12:16:04.742Z,29.74
2018-05-05T12:18:36.887Z,29.28
2018-05-05T12:21:08.240Z,29.24
2018-05-05T12:23:39.922Z,28.81
2018-05-05T12:26:12.292Z,29.26
2018-05-05T12:28:43.915Z,29.30
2018-05-05T12:31:15.415Z,29.77
2018-05-05T12:33:47.075Z,29.52
2018-05-05T12:36:19.703Z,29.39
2018-05-05T12:38:51.091Z,29.27
2018-05-05T12:41:23.790Z,29.82
2018-05-05T12:43:55.624Z,29.03
2018-05-05T12:46:27.828Z,28.36
2018-05-05T12:48:59.014Z,28.78
2018-05-05T12:51:32.121Z,29.44
2018-05-05T12:54:04.292Z,29.18
2018-05-05T12:56:36.989Z,28.43
2018-05-05T12:59:08.407Z,28.19
2018-05-05T13:01:42.709Z,28.58
2018-05-05T13:04:17.374Z,29.06
2018-05-05T13:06:50.786Z,28.48
2018-05-05T13:09:22.985Z,28.04
2018-05-05T13:11:56.213Z,28.67
2018-05-05T13:14:29.676Z,28.57
2018-05-05T13:17:01.167Z,27.91
2018-05-05T13:19:34.463Z,27.99
2018-05-05T13:22:06.714Z,27.67
2018-05-05T13:24:40.143Z,27.04
2018-05-05T13:27:12.044Z,27.45
2018-05-05T13:29:45.429Z,27.27
2018-05-05T13:32:19.953Z,26.82
2018-05-05T13:34:54.100Z,27.07
2018-05-05T13:37:26.284Z,27.55
2018-05-05T13:39:59.783Z,27.54
2018-05-05T13:42:33.072Z,26.82
2018-05-05T13:45:07.077Z,27.02
2018-05-05T13:47:39.722Z,26.63
2018-05-05T13:50:12.158Z,26.16
2018-05-05T13:52:45.415Z,25.53
2018-05-05T13:55:20.731Z,25.74
2018-05-05T13:57:52.045Z,26.43
2018-05-05T14:00:25.554Z,26.52
2018-05-05T14:02:59.132Z,26.17
2018-05-05T14:05:30.771Z,26.45
2018-05-05T14:08:05.404Z,26.77
2018-05-05T14:10:38.890Z,26.75
2018-05-05T14:13:11.956Z,26.54
2018-05-05T14:15:45.019Z,26.42
2018-05-05T14:18:17.614Z,26.52
2018-05-05T14:20:51.079Z,25.64
2018-05-05T14:23:24.867Z,25.57
2018-05-05T14:25:58.114Z,25.61
2018-05-05T14:28:31.652Z,25.68
2018-05-05T14:31:04.783Z,24.94
2018-05-05T14:33:38.207Z,25.45
2018-05-05T14:36:10.540Z,25.56
2018-05-05T14:38:43.983Z,24.98
2018-05-05T14:41:17.243Z,24.87
2018-05-05T14:43:50.644Z,24.96
2018-05-05T14:46:23.902Z,24.89
2018-05-05T14:48:57.113Z,25.24
2018-05-05T14:51:31.611Z,25.45
2018-05-05T14:54:05.513Z,25.59
2018-05-05T14:56:37.756Z,25.50
2018-05-05T14:59:10.281Z,24.63
2018-05-05T15:01:43.627Z,24.25
2018-05-05T15:04:17.542Z,24.26
2018-05-05T15:06:51.279Z,24.77
2018-05-05T15:09:25.184Z,25.41
2018-05-05T15:11:59.667Z,24.71
2018-05-05T15:14:33.233Z,24.41
2018-05-05T15:17:07.535Z,24.70
2018-05-05T15:19:41.304Z,25.01
2018-05-05T15:22:17.701Z,25.00
2018-05-05T15:24:53.198Z,24.89
2018-05-05T15:27:29.186Z,25.12
2018-05-05T15:30:00.540Z,25.22
2018-05-05T15:32:34.511Z,25.42
2018-05-05T15:35:07.982Z,25.85
2018-05-05T15:37:41.089Z,25.81
2018-05-05T15:40:14.524Z,25.35
2018-05-05T15:42:46.494Z,25.09
2018-05-05T15:45:20.795Z,25.19
2018-05-05T15:47:53.939Z,25.25
2018-05-05T15:50:27.361Z,24.86
2018-05-05T15:53:00.657Z,24.59
2018-05-05T15:55:35.140Z,24.74
2018-05-05T15:58:08.319Z,25.41
2018-05-05T16:00:45.325Z,25.04
2018-05-05T16:03:18.568Z,25.37
2018-05-05T16:05:53.346Z,25.55
2018-05-05T16:08:27.618Z,25.75
2018-05-05T16:11:00.486Z,25.39
2018-05-05T16:13:35.356Z,25.66
2018-05-05T16:16:08.526Z,25.52
2018-05-05T16:18:41.806Z,25.43
2018-05-05T16:21:15.093Z,25.44
2018-05-05T16:23:48.271Z,24.82
2018-05-05T16:26:23.144Z,24.36
2018-05-05T16:28:56.731Z,23.80
2018-05-05T16:31:29.862Z,23.97
2018-05-05T16:34:03.101Z,24.32
2018-05-05T16:36:36.567Z,24.48
2018-05-05T16:39:09.848Z,24.67
2018-05-05T16:41:43.037Z,24.29
2018-05-05T16:44:17.287Z,24.00
2018-05-05T16:46:50.494Z,24.17
2018-05-05T16:49:23.708Z,24.11
2018-05-05T16:51:57.937Z,24.63
2018-05-05T16:54:31.158Z,24.19
2018-05-05T16:57:04.476Z,24.68
2018-05-05T16:59:38.146Z,24.48
2018-05-05T17:02:11.263Z,24.60
2018-05-05T17:04:45.366Z,24.55
2018-05-05T17:07:18.546Z,24.15
2018-05-05T17:09:52.308Z,24.20
2018-05-05T17:12:25.511Z,24.83
2018-05-05T17:14:58.752Z,25.25
2018-05-05T17:17:31.899Z,25.33
2018-05-05T17:20:05.356Z,25.31
2018-05-05T17:22:38.560Z,25.43
2018-05-05T17:25:11.814Z,25.52
2018-05-05T17:27:43.772Z,25.36
2018-05-05T17:30:17.239Z,25.28
2018-05-05T17:32:50.382Z,25.51
2018-05-05T17:35:23.868Z,26.03
2018-05-05T17:37:57.187Z,26.49
2018-05-05T17:40:30.664Z,26.78
2018-05-05T17:43:01.837Z,27.50
2018-05-05T17:45:34.773Z,28.40
2018-05-05T17:48:08.329Z,28.92
2018-05-05T17:50:41.524Z,29.33
2018-05-05T17:53:13.740Z,29.85
2018-05-05T17:55:47.288Z,30.27
2018-05-05T17:58:19.652Z,30.67
2018-05-05T18:00:53.064Z,30.92
2018-05-05T18:03:27.174Z,31.05
2018-05-05T18:06:02.077Z,31.28
2018-05-05T18:08:33.935Z,31.31
2018-05-05T18:11:06.331Z,31.41
2018-05-05T18:13:40.744Z,31.60
2018-05-05T18:16:14.734Z,31.72
2018-05-05T18:18:48.031Z,31.90
2018-05-05T18:21:21.223Z,32.26
2018-05-05T18:23:52.970Z,32.49
2018-05-05T18:26:26.095Z,32.52
2018-05-05T18:28:57.945Z,32.61
2018-05-05T18:31:30.188Z,32.79
2018-05-05T18:34:02.670Z,33.28
2018-05-05T18:36:35.937Z,33.49
2018-05-05T18:39:08.191Z,33.44
2018-05-05T18:41:40.456Z,33.45
2018-05-05T18:44:13.386Z,33.43
2018-05-05T18:46:47.429Z,33.73
2018-05-05T18:49:20.148Z,33.80
2018-05-05T18:51:51.748Z,34.12
2018-05-05T18:54:25.141Z,34.40
2018-05-05T18:56:56.554Z,34.73
2018-05-05T18:59:28.553Z,34.77
2018-05-05T19:02:00.765Z,34.92
2018-05-05T19:04:33.819Z,35.20
2018-05-05T19:07:06.701Z,35.18
2018-05-05T19:09:39.725Z,35.31
2018-05-05T19:12:12.745Z,35.52
2018-05-05T19:14:44.160Z,35.59
2018-05-05T19:17:15.591Z,35.68
2018-05-05T19:19:47.793Z,35.59
2018-05-05T19:22:19.091Z,35.82
2018-05-05T19:24:50.790Z,35.88
2018-05-05T19:27:22.172Z,35.94
2018-05-05T19:29:54.353Z,36.16
2018-05-05T19:32:25.669Z,36.30
2018-05-05T19:34:57.553Z,36.29
2018-05-05T19:37:28.875Z,36.37
2018-05-05T19:40:01.433Z,36.53
2018-05-05T19:42:33.038Z,36.72
2018-05-05T19:45:07.330Z,36.77
2018-05-05T19:47:39.912Z,36.85
2018-05-05T19:50:12.227Z,36.95
2018-05-05T19:52:43.725Z,37.15
2018-05-05T19:55:16.326Z,37.40
2018-05-05T19:57:47.654Z,37.43
2018-05-05T20:00:18.743Z,37.51
2018-05-05T20:02:51.002Z,37.72
2018-05-05T20:05:22.151Z,37.79
2018-05-05T20:07:53.594Z,38.17
2018-05-05T20:10:24.907Z,38.45
2018-05-05T20:12:55.933Z,38.48
2018-05-05T20:15:27.386Z,38.57
2018-05-05T20:17:58.718Z,38.58
2018-05-05T20:20:31.273Z,38.74
2018-05-05T20:23:03.340Z,38.66
2018-05-05T20:25:35.004Z,38.95
2018-05-05T20:28:06.497Z,39.04
2018-05-05T20:30:37.916Z,39.22
2018-05-05T20:33:09.989Z,39.41
2018-05-05T20:35:41.360Z,39.69
2018-05-05T20:38:13.208Z,39.80
2018-05-05T20:40:44.656Z,39.88
2018-05-05T20:43:16.989Z,39.92
2018-05-05T20:45:48.429Z,40.09
2018-05-05T20:48:20.924Z,40.10
2018-05-05T20:50:52.392Z,40.18
2018-05-05T20:53:23.935Z,40.28
2018-05-05T20:55:55.444Z,40.24
2018-05-05T20:58:29.858Z,40.25
2018-05-05T21:01:01.835Z,40.38
2018-05-05T21:03:34.225Z,40.49
2018-05-05T21:06:06.885Z,40.55
2018-05-05T21:08:37.070Z,40.76
2018-05-05T21:11:07.711Z,40.93
2018-05-05T21:13:38.813Z,40.91
2018-05-05T21:16:10.302Z,41.33
2018-05-05T21:18:41.345Z,41.43
2018-05-05T21:21:12.802Z,41.37
2018-05-05T21:23:43.986Z,41.34
2018-05-05T21:26:15.901Z,41.12
2018-05-05T21:28:47.576Z,41.23
2018-05-05T21:31:19.064Z,41.36
2018-05-05T21:33:50.227Z,41.78
2018-05-05T21:36:20.680Z,41.77
2018-05-05T21:38:52.083Z,41.63
2018-05-05T21:41:24.475Z,41.86
2018-05-05T21:43:55.978Z,41.88
2018-05-05T21:46:27.602Z,41.66
2018-05-05T21:49:00.139Z,41.68
2018-05-05T21:51:31.912Z,41.58
2018-05-05T21:54:03.331Z,41.58
2018-05-05T21:56:34.749Z,41.64
2018-05-05T21:59:06.128Z,41.80
2018-05-05T22:01:37.594Z,41.95
2018-05-05T22:04:08.342Z,41.88
2018-05-05T22:06:40.670Z,42.03
2018-05-05T22:09:11.754Z,41.89
2018-05-05T22:11:44.127Z,41.98
2018-05-05T22:14:16.022Z,41.83
2018-05-05T22:16:47.228Z,41.95
2018-05-05T22:19:19.673Z,41.84
2018-05-05T22:21:51.762Z,41.83
2018-05-05T22:24:23.113Z,41.86
2018-05-05T22:26:55.431Z,41.88
2018-05-05T22:29:25.951Z,41.86
2018-05-05T22:31:57.418Z,42.02
2018-05-05T22:34:27.681Z,42.17
2018-05-05T22:36:59.914Z,42.07
2018-05-05T22:39:31.206Z,42.06
2018-05-05T22:42:02.600Z,42.15
2018-05-05T22:44:35.107Z,42.35
2018-05-05T22:47:06.686Z,42.51
2018-05-05T22:49:38.754Z,42.34
2018-05-05T22:52:10.254Z,42.49
2018-05-05T22:54:41.504Z,42.60
2018-05-05T22:57:12.865Z,42.51
2018-05-05T22:59:46.593Z,42.69
2018-05-05T23:02:18.007Z,42.73
2018-05-05T23:04:49.483Z,42.92
2018-05-05T23:07:21.342Z,43.11
2018-05-05T23:09:54.272Z,43.17
2018-05-05T23:12:32.756Z,42.92
2018-05-05T23:15:06.949Z,42.76
2018-05-05T23:17:38.833Z,42.95
2018-05-05T23:20:10.447Z,42.98
2018-05-05T23:22:41.824Z,43.13
2018-05-05T23:25:14.780Z,42.96
2018-05-05T23:27:47.204Z,42.99
2018-05-05T23:30:19.809Z,43.13
2018-05-05T23:32:51.475Z,43.07
2018-05-05T23:35:22.901Z,43.13
2018-05-05T23:37:55.195Z,43.15
2018-05-05T23:40:27.070Z,43.08
2018-05-05T23:42:58.643Z,42.95
2018-05-05T23:45:31.467Z,43.04
2018-05-05T23:48:02.923Z,42.93
2018-05-05T23:50:36.067Z,43.07
2018-05-05T23:53:07.782Z,43.33
2018-05-05T23:55:39.998Z,43.26
2018-05-05T23:58:12.682Z,43.37
